Portada
METAR-TAF:

METAR-TAF

Aeroports :

Aeroport Internacional Maiquetía Simón Bolívar

Caracas, Veneçuela

latitud: 10-36N, longitud: 066-59W, altitud: 43 m

Observació

L'informe es va fer fa 1 hora i 4 minuts, a les 18:00 UTC
Vent 6 kt del Nord/Nord-Est
Temperatura 31°C
Humitat 66%
Pressió 1011 hPa
Visibilitat 10 km o més
Escasses núvols a una alçada de 1600 ft

METAR: SVMI 181800Z 02006KT 9999 FEW016 31/24 Q1011

Hora: 15:04 (19:04 UTC)

Pronòstic

L'informe es va fer fa 19 hores i 49 minuts, a les 23:15 UTC
Pronòstic vàlid del 17 a les 00 UTC al 18 a les 00 UTC
Vent 2 kt del Est/Nord-Est
Visibilitat 10 km o més
Evolucionant progressivament
l' 17 a les 00 UTC al 17 a les 00 UTC
Vent 3 kt del Sud/Sud-Oest
Visibilitat 10 km o més
Escasses núvols a una alçada de 1600 ft
Núvols disperses a una alçada de 30000 ft

TAF: SVMI 162315Z 1700/1800 07002KT 9999 BNK016 TX32/19Z TN22/08Z BECMG 1700/1700 20003KT 9999 FEW016 SCT300

Observacions i pronòstics meteorològics de més de 4000 aeroports (METAR i TAF).

Les estacions disponibles són els punts grocs i vermells al mapa.

Posi el ratolí al punt desitjat per veure el nom de l'estació.

Feu clic per veure les observacions i els pronòstics meteorològics.

Per canviar el mapa: feu clic els botons verds amb una creu de color negre per apropar; al botó verd amb un guió per allunyar la imatge; o en les fletxes verdes per a mapes adjacents.


METAR-TAF: